Time;durP1;ratioP1;P1;durP2;ratioP2;P2;SDS_P1;SDS_P2;PMS_P1;PMS_P2;Temp;Humidity;BMP_temperature;BMP_pressure;BME280_temperature;BME280_humidity;BME280_pressure;Samples;Min_cycle;Max_cycle;Signal;HPM_P1;HPM_P2
2023/01/24 00:01:20;;;;;;;8.48;3.75;;;;;;;2.58;70.35;102920.59;5091315;28;20444;-77
2023/01/24 00:03:46;;;;;;;8.60;3.75;;;;;;;2.74;70.52;102926.03;5090720;28;21002;-77
2023/01/24 00:06:12;;;;;;;8.75;3.65;;;;;;;2.77;70.42;102922.44;5089996;28;20474;-76
2023/01/24 00:08:37;;;;;;;7.63;3.38;;;;;;;2.77;70.46;102925.88;5092398;28;20377;-77
2023/01/24 00:11:06;;;;;;;6.30;3.42;;;;;;;2.58;70.83;102924.97;5091876;28;20416;-77
2023/01/24 00:13:32;;;;;;;9.10;3.88;;;;;;;2.60;71.13;102912.66;5092223;28;20380;-77
2023/01/24 00:16:18;;;;;;;9.15;3.80;;;;;;;2.78;70.44;102922.38;5090953;28;20522;-77
2023/01/24 00:18:44;;;;;;;5.78;3.40;;;;;;;2.89;70.67;102921.06;5091122;28;20376;-77
2023/01/24 00:21:19;;;;;;;7.43;3.50;;;;;;;3.02;69.85;102917.00;5091897;28;20384;-77
2023/01/24 00:23:47;;;;;;;8.50;3.20;;;;;;;2.74;70.52;102923.41;5092212;28;20406;-77
2023/01/24 00:26:14;;;;;;;6.35;3.15;;;;;;;2.97;70.23;102916.34;5091573;28;20390;-78
2023/01/24 00:28:39;;;;;;;7.30;3.35;;;;;;;2.86;70.15;102920.28;5091443;28;20491;-77
2023/01/24 00:31:05;;;;;;;6.63;3.30;;;;;;;2.65;70.54;102919.41;5091484;28;20405;-77
2023/01/24 00:33:32;;;;;;;5.70;3.30;;;;;;;2.39;71.54;102917.84;5091702;28;20438;-77
2023/01/24 00:35:58;;;;;;;7.07;3.33;;;;;;;2.59;70.97;102916.19;5091627;28;20408;-77
2023/01/24 00:38:24;;;;;;;6.13;3.40;;;;;;;2.62;70.52;102927.38;5092006;28;20412;-77
2023/01/24 00:40:50;;;;;;;5.97;3.22;;;;;;;2.59;70.73;102927.53;5092661;28;20419;-77
2023/01/24 00:43:15;;;;;;;8.10;3.10;;;;;;;2.43;71.33;102947.38;5092643;28;20738;-76
2023/01/24 00:45:44;;;;;;;6.23;3.60;;;;;;;2.63;70.81;102939.56;5092298;28;20841;-77
2023/01/24 00:48:09;;;;;;;6.85;3.17;;;;;;;2.64;70.62;102925.56;5090825;28;20381;-77
2023/01/24 00:50:35;;;;;;;6.47;3.28;;;;;;;2.81;70.19;102937.09;5090161;28;20723;-77
2023/01/24 00:53:01;;;;;;;6.53;3.58;;;;;;;2.82;70.06;102941.41;5091120;28;20369;-77
2023/01/24 00:55:27;;;;;;;7.50;4.35;;;;;;;2.99;69.90;102936.31;5091274;28;20421;-76
2023/01/24 00:57:52;;;;;;;8.23;3.57;;;;;;;3.14;69.03;102940.03;5090519;28;20489;-77
2023/01/24 01:00:18;;;;;;;4.70;3.00;;;;;;;2.92;69.33;102929.66;5090874;28;20389;-77
2023/01/24 01:02:44;;;;;;;6.87;3.47;;;;;;;2.84;69.62;102936.97;5091227;28;20464;-77
2023/01/24 01:05:09;;;;;;;5.27;3.07;;;;;;;2.74;69.74;102933.03;5091240;28;20865;-77
2023/01/24 01:07:35;;;;;;;7.32;3.42;;;;;;;2.89;69.76;102936.78;5090386;28;20472;-77
2023/01/24 01:10:01;;;;;;;3.83;2.72;;;;;;;2.98;69.41;102952.94;5091292;28;20386;-77
2023/01/24 01:12:26;;;;;;;5.97;3.15;;;;;;;3.04;69.24;102939.59;5091107;28;20401;-77
2023/01/24 01:14:52;;;;;;;6.33;3.23;;;;;;;2.86;69.47;102932.50;5100125;28;20797;-77
2023/01/24 01:17:17;;;;;;;4.90;3.10;;;;;;;2.72;69.99;102924.38;5091159;28;20377;-77
2023/01/24 01:19:43;;;;;;;6.95;3.28;;;;;;;2.93;69.65;102920.00;5089880;28;20853;-77
2023/01/24 01:22:09;;;;;;;6.47;3.28;;;;;;;3.00;69.64;102934.56;5091018;28;20439;-76
2023/01/24 01:24:34;;;;;;;4.40;2.90;;;;;;;2.77;69.86;102920.66;5090379;28;20381;-76
2023/01/24 01:27:00;;;;;;;5.60;2.97;;;;;;;2.96;69.83;102931.22;5091052;28;20385;-76
2023/01/24 01:29:26;;;;;;;4.88;2.92;;;;;;;2.81;69.87;102932.72;5090598;28;20401;-76
2023/01/24 01:31:51;;;;;;;7.43;3.20;;;;;;;2.76;70.07;102918.97;5095639;28;20412;-77
2023/01/24 01:34:17;;;;;;;7.90;3.20;;;;;;;2.72;70.20;102921.75;5092649;28;20369;-77
2023/01/24 01:36:43;;;;;;;4.53;2.80;;;;;;;2.61;70.51;102920.47;5091287;28;20426;-77
2023/01/24 01:39:08;;;;;;;5.30;2.93;;;;;;;2.92;70.23;102929.66;5090961;28;20385;-76
2023/01/24 01:41:34;;;;;;;5.37;3.20;;;;;;;2.95;69.80;102926.88;5094175;28;20444;-76
2023/01/24 01:44:37;;;;;;;4.70;2.60;;;;;;;2.99;69.56;102924.97;5110005;28;20386;-77
2023/01/24 01:47:24;;;;;;;7.35;3.03;;;;;;;2.85;69.60;102928.19;5109299;27;20364;-77
2023/01/24 01:50:14;;;;;;;5.40;2.92;;;;;;;2.76;70.05;102921.59;5081069;28;20400;-76
2023/01/24 01:52:42;;;;;;;6.00;3.30;;;;;;;2.79;70.03;102917.97;5090183;28;20409;-77
2023/01/24 01:55:18;;;;;;;6.38;2.70;;;;;;;2.71;70.06;102915.69;5090156;28;20530;-77
2023/01/24 01:57:47;;;;;;;4.40;2.53;;;;;;;2.62;70.07;102916.06;5090248;28;20380;-77
2023/01/24 02:00:16;;;;;;;4.43;2.50;;;;;;;2.66;70.10;102920.25;5089807;28;20853;-77
2023/01/24 02:02:47;;;;;;;5.40;2.92;;;;;;;2.50;70.30;102922.66;5089737;28;20849;-77
2023/01/24 02:05:16;;;;;;;4.72;2.85;;;;;;;2.70;70.24;102924.44;5089101;28;20441;-76
2023/01/24 02:08:01;;;;;;;6.95;3.00;;;;;;;2.67;70.18;102930.66;5088296;28;20381;-76
2023/01/24 02:11:37;;;;;;;5.80;2.75;;;;;;;2.62;70.52;102934.41;5088994;28;20472;-76
2023/01/24 02:13:16;;;;;;;6.00;3.05;;;;;;;2.58;70.21;102915.34;5089845;28;20415;-77
2023/01/24 02:16:03;;;;;;;5.45;2.92;;;;;;;2.69;70.20;102920.13;5090178;28;20795;-77
2023/01/24 02:18:34;;;;;;;5.20;3.13;;;;;;;2.65;70.47;102919.41;5089948;28;20544;-77
2023/01/24 02:21:00;;;;;;;5.13;2.78;;;;;;;2.96;69.62;102927.75;5089720;28;20387;-76
2023/01/24 02:23:37;;;;;;;6.55;2.78;;;;;;;2.55;70.36;102935.56;5089381;28;20405;-77
2023/01/24 02:26:15;;;;;;;5.35;2.58;;;;;;;2.68;70.17;102921.03;5089058;28;20379;-77
2023/01/24 02:28:49;;;;;;;5.93;2.70;;;;;;;2.69;69.98;102928.00;5098424;28;20394;-77
2023/01/24 02:31:15;;;;;;;4.68;2.25;;;;;;;2.40;70.52;102930.03;5110134;28;20437;-77
2023/01/24 02:33:40;;;;;;;5.03;2.87;;;;;;;2.61;70.34;102925.69;5108977;28;20785;-77
2023/01/24 02:36:11;;;;;;;4.97;2.47;;;;;;;2.72;69.69;102919.13;5109763;28;20368;-77
2023/01/24 02:38:40;;;;;;;6.90;2.70;;;;;;;2.52;70.05;102931.31;5109941;28;20415;-77
2023/01/24 02:41:08;;;;;;;4.18;2.30;;;;;;;2.56;69.79;102927.66;5109227;28;20782;-76
2023/01/24 02:43:46;;;;;;;4.10;2.63;;;;;;;2.45;69.96;102925.47;5109782;28;20458;-76
2023/01/24 02:46:11;;;;;;;4.30;2.20;;;;;;;2.55;69.57;102919.84;5109738;28;20463;-77
2023/01/24 02:48:37;;;;;;;3.60;2.23;;;;;;;2.63;69.49;102923.88;5110093;28;20372;-76
2023/01/24 02:53:46;;;;;;;5.53;2.80;;;;;;;2.46;69.94;102923.69;5109690;28;20460;-76
2023/01/24 02:58:56;;;;;;;5.53;2.72;;;;;;;2.66;69.68;102923.72;5109505;28;20383;-76
2023/01/24 03:01:22;;;;;;;4.78;2.60;;;;;;;2.27;70.50;102936.69;5110064;28;20380;-77
2023/01/24 03:03:50;;;;;;;6.82;2.80;;;;;;;2.41;70.40;102923.91;5117013;28;20371;-77
2023/01/24 03:06:17;;;;;;;4.68;2.35;;;;;;;2.46;70.04;102923.69;5110670;28;20384;-77
2023/01/24 03:08:43;;;;;;;5.22;2.40;;;;;;;2.62;69.62;102921.31;5109626;28;20367;-76
2023/01/24 03:11:10;;;;;;;5.40;4.07;;;;;;;2.84;69.28;102929.94;5109497;28;20395;-75
2023/01/24 03:35:32;;;;;;;4.75;2.22;;;;;;;2.47;68.92;102930.66;5113851;28;20382;-75
2023/01/24 03:40:41;;;;;;;6.35;2.47;;;;;;;2.41;69.35;102925.66;5113165;28;20375;-75
2023/01/24 03:43:07;;;;;;;6.78;2.90;;;;;;;2.49;69.54;102929.66;5113054;28;20371;-75
2023/01/24 03:45:35;;;;;;;5.95;2.53;;;;;;;2.64;69.07;102919.47;5112192;28;20371;-75
2023/01/24 03:48:09;;;;;;;5.63;2.33;;;;;;;2.73;68.77;102926.09;5113321;28;20414;-75
2023/01/24 03:53:23;;;;;;;5.18;2.58;;;;;;;2.59;68.68;102931.91;5112930;28;20387;-74
2023/01/24 03:55:53;;;;;;;4.93;2.27;;;;;;;2.55;69.39;102917.25;5112741;28;20372;-74
2023/01/24 03:58:18;;;;;;;5.05;2.80;;;;;;;2.64;68.82;102925.56;5112659;27;20368;-74
2023/01/24 04:00:44;;;;;;;3.60;2.23;;;;;;;2.63;68.66;102926.47;5112630;28;20422;-76
2023/01/24 04:03:09;;;;;;;5.00;2.20;;;;;;;2.63;68.29;102907.31;5112580;28;20773;-75
2023/01/24 04:05:35;;;;;;;7.33;2.47;;;;;;;2.76;68.21;102918.97;5113026;28;20380;-76
2023/01/24 04:08:02;;;;;;;5.60;2.90;;;;;;;2.79;68.17;102917.97;5112751;28;20379;-75
2023/01/24 04:10:28;;;;;;;4.47;2.60;;;;;;;2.71;68.22;102920.91;5112734;28;20372;-75
2023/01/24 04:12:55;;;;;;;5.35;2.63;;;;;;;2.44;69.21;102918.53;5111871;28;20446;-75
2023/01/24 04:15:24;;;;;;;5.30;2.40;;;;;;;2.55;68.82;102918.09;5112525;28;20360;-75
2023/01/24 04:17:49;;;;;;;3.75;2.47;;;;;;;2.55;69.00;102914.63;5112567;28;20832;-75
2023/01/24 04:20:15;;;;;;;5.93;2.97;;;;;;;2.57;69.22;102921.47;5112304;28;20391;-75
2023/01/24 04:22:41;;;;;;;6.00;2.78;;;;;;;2.67;68.67;102922.81;5112616;28;20836;-75
2023/01/24 04:25:07;;;;;;;5.55;2.75;;;;;;;2.55;68.85;102915.47;5111060;28;20372;-75
2023/01/24 04:27:33;;;;;;;7.22;3.13;;;;;;;2.61;69.07;102914.34;5110781;28;20380;-75
2023/01/24 04:29:58;;;;;;;4.05;2.60;;;;;;;2.41;69.20;102929.13;5111336;28;20405;-75
2023/01/24 04:32:24;;;;;;;4.88;2.80;;;;;;;2.63;68.89;102917.78;5110372;28;20403;-75
2023/01/24 04:34:49;;;;;;;5.70;2.65;;;;;;;2.47;69.19;102931.50;5112358;28;20440;-75
2023/01/24 04:37:15;;;;;;;6.57;3.30;;;;;;;2.45;69.54;102928.09;5111172;28;20376;-74
2023/01/24 04:39:40;;;;;;;6.10;2.90;;;;;;;2.61;68.38;102917.84;5111438;28;21028;-75
2023/01/24 04:42:06;;;;;;;6.37;2.73;;;;;;;2.51;68.94;102913.91;5112159;28;20460;-75
2023/01/24 04:44:32;;;;;;;5.10;2.70;;;;;;;2.72;68.29;102912.16;5111771;28;20380;-74
2023/01/24 04:46:59;;;;;;;5.80;3.30;;;;;;;2.57;68.03;102916.25;5111634;28;20390;-76
2023/01/24 04:49:25;;;;;;;5.00;2.78;;;;;;;2.48;68.76;102925.34;5111237;28;20436;-75
2023/01/24 04:51:50;;;;;;;7.28;3.13;;;;;;;2.36;68.99;102917.13;5115880;28;20395;-75
2023/01/24 04:54:16;;;;;;;6.80;3.78;;;;;;;2.60;68.39;102921.38;5115067;28;20422;-75
2023/01/24 04:56:42;;;;;;;8.25;3.58;;;;;;;2.52;68.08;102918.22;5108479;28;20395;-75
2023/01/24 04:59:10;;;;;;;9.97;3.90;;;;;;;2.61;68.54;102920.47;5109314;28;20376;-75
2023/01/24 05:01:36;;;;;;;11.18;4.10;;;;;;;2.70;68.17;102920.97;5106102;28;20535;-75
2023/01/24 05:04:01;;;;;;;8.25;3.70;;;;;;;2.74;67.78;102914.69;5110625;28;20474;-75
2023/01/24 05:06:29;;;;;;;6.93;3.17;;;;;;;2.49;68.11;102929.66;5110380;28;20382;-74
2023/01/24 05:08:56;;;;;;;9.18;3.60;;;;;;;2.37;68.35;102922.31;5110916;28;20596;-74
2023/01/24 05:11:22;;;;;;;7.13;2.95;;;;;;;2.54;68.28;102933.84;5118547;28;20420;-75
2023/01/24 05:13:48;;;;;;;8.35;3.33;;;;;;;2.50;68.28;102935.75;5117175;28;20927;-75
2023/01/24 05:16:15;;;;;;;7.28;3.50;;;;;;;2.58;68.31;102944.16;5110302;28;20394;-75
2023/01/24 05:18:40;;;;;;;7.10;3.45;;;;;;;2.63;67.78;102933.50;5111541;28;20376;-75
2023/01/24 05:21:08;;;;;;;8.77;3.33;;;;;;;2.82;67.77;102941.41;5110563;28;20874;-75
2023/01/24 05:23:33;;;;;;;6.93;3.10;;;;;;;2.66;67.74;102949.91;5110746;28;20905;-75
2023/01/24 05:26:00;;;;;;;8.98;3.88;;;;;;;2.78;67.63;102951.19;5112060;28;20415;-76
2023/01/24 05:28:26;;;;;;;9.10;3.33;;;;;;;2.54;68.34;102946.94;5098901;28;21204;-75
2023/01/24 05:30:51;;;;;;;6.22;3.47;;;;;;;2.67;68.07;102958.63;5108763;28;20415;-75
2023/01/24 05:33:17;;;;;;;8.98;3.47;;;;;;;2.49;68.36;102966.31;5110405;28;20490;-75
2023/01/24 05:35:44;;;;;;;9.98;3.67;;;;;;;2.39;69.19;102951.88;5109897;28;20379;-75
2023/01/24 05:38:10;;;;;;;8.77;3.67;;;;;;;2.52;68.69;102954.88;5110000;28;20732;-75
2023/01/24 05:40:35;;;;;;;8.00;3.55;;;;;;;2.54;68.60;102973.13;5106111;28;20384;-75
2023/01/24 05:43:01;;;;;;;9.50;3.50;;;;;;;2.52;68.50;102960.13;5107724;28;20787;-75
2023/01/24 05:45:26;;;;;;;9.10;3.90;;;;;;;2.56;68.16;102963.47;5108198;28;20379;-75
2023/01/24 05:47:52;;;;;;;7.53;3.63;;;;;;;2.64;67.63;102966.59;5109882;28;20423;-75
2023/01/24 05:50:17;;;;;;;8.33;3.63;;;;;;;2.58;67.74;102965.09;5108345;28;20445;-75
2023/01/24 05:52:43;;;;;;;12.57;5.27;;;;;;;2.71;67.44;102972.44;5110050;28;20876;-75
2023/01/24 05:55:08;;;;;;;9.57;4.87;;;;;;;2.72;67.17;102967.16;5110347;28;20396;-76
2023/01/24 05:57:36;;;;;;;9.83;5.37;;;;;;;2.92;66.86;102974.19;5108926;28;20386;-75
2023/01/24 06:00:04;;;;;;;12.43;5.47;;;;;;;2.90;66.55;102972.53;5106066;28;20464;-75
2023/01/24 06:02:29;;;;;;;14.30;5.80;;;;;;;2.91;66.10;102977.72;5110464;28;20379;-76
2023/01/24 06:04:55;;;;;;;9.90;5.20;;;;;;;3.17;65.97;102980.97;5110296;28;20436;-76
2023/01/24 06:07:20;;;;;;;8.25;3.90;;;;;;;2.93;65.98;102980.25;5107655;28;20411;-76
2023/01/24 06:09:46;;;;;;;9.13;3.90;;;;;;;2.82;65.77;102981.56;5110129;28;20724;-74
2023/01/24 06:12:11;;;;;;;13.77;5.13;;;;;;;2.68;65.57;102986.50;5110463;28;20406;-75
2023/01/24 06:14:37;;;;;;;16.30;5.87;;;;;;;2.66;65.45;102993.56;5106869;28;20875;-75
2023/01/24 06:17:02;;;;;;;14.52;5.78;;;;;;;2.87;65.01;102990.06;5110808;28;20438;-76
2023/01/24 06:19:28;;;;;;;9.77;4.43;;;;;;;2.85;64.94;102991.91;5106743;28;20385;-77
2023/01/24 06:22:09;;;;;;;10.55;4.65;;;;;;;2.79;64.67;103007.91;5106763;28;20374;-75
2023/01/24 06:24:34;;;;;;;8.55;4.53;;;;;;;2.48;65.63;103003.91;5108099;28;20702;-75
2023/01/24 06:27:00;;;;;;;6.32;2.92;;;;;;;2.62;65.16;103008.56;5106751;28;20863;-75
2023/01/24 06:29:26;;;;;;;8.15;3.30;;;;;;;2.62;65.22;103005.09;5106653;28;20696;-75
2023/01/24 06:32:10;;;;;;;6.25;3.47;;;;;;;2.38;65.54;103012.16;5108234;28;20395;-75
2023/01/24 06:34:50;;;;;;;6.82;2.95;;;;;;;2.59;65.29;103015.69;5109852;28;20464;-74
2023/01/24 06:37:45;;;;;;;7.53;3.40;;;;;;;2.46;65.75;103026.63;5109269;28;20380;-75
2023/01/24 06:40:13;;;;;;;6.68;3.08;;;;;;;2.44;65.88;103025.00;5104868;28;20389;-74
2023/01/24 06:42:39;;;;;;;5.88;3.05;;;;;;;2.58;65.67;103027.09;5114947;28;20372;-75
2023/01/24 06:45:06;;;;;;;8.68;4.20;;;;;;;2.57;66.00;103034.06;5107620;28;20765;-75
2023/01/24 06:47:31;;;;;;;8.37;3.50;;;;;;;2.44;66.32;103035.47;5106974;28;20466;-75
2023/01/24 06:49:57;;;;;;;7.80;3.73;;;;;;;2.67;65.73;103032.81;5109340;28;20450;-75
2023/01/24 06:52:22;;;;;;;8.73;3.70;;;;;;;2.65;65.43;103044.25;5111908;28;20414;-74
2023/01/24 06:54:48;;;;;;;7.47;4.13;;;;;;;2.87;65.07;103036.38;5112000;28;20371;-74
2023/01/24 06:57:13;;;;;;;8.97;4.10;;;;;;;2.85;65.00;103036.44;5111967;28;20386;-75
2023/01/24 06:59:39;;;;;;;9.52;4.50;;;;;;;2.78;64.58;103028.91;5119338;28;20826;-74
2023/01/24 07:02:05;;;;;;;8.33;4.13;;;;;;;2.76;65.05;103051.69;5115405;28;20762;-75
2023/01/24 07:04:30;;;;;;;8.18;4.10;;;;;;;2.65;64.90;103050.34;5113329;28;20383;-76
2023/01/24 07:06:56;;;;;;;8.00;3.80;;;;;;;2.84;64.77;103046.97;5093721;28;20373;-75
2023/01/24 07:09:22;;;;;;;7.50;4.17;;;;;;;2.94;64.56;103056.19;5109156;28;20467;-75
2023/01/24 07:11:52;;;;;;;6.65;3.78;;;;;;;3.10;64.23;103051.16;5115257;28;20410;-74
2023/01/24 07:14:17;;;;;;;7.25;4.13;;;;;;;3.11;63.81;103057.25;5115021;28;20791;-75
2023/01/24 07:16:43;;;;;;;6.88;4.38;;;;;;;3.05;63.84;103055.75;5115459;28;20859;-75
2023/01/24 07:19:24;;;;;;;11.77;4.82;;;;;;;3.01;64.06;103064.66;5114976;28;20371;-74
2023/01/24 07:21:52;;;;;;;8.98;4.68;;;;;;;3.24;63.58;103067.19;5115154;28;20371;-74
2023/01/24 07:24:20;;;;;;;9.27;4.85;;;;;;;3.11;63.98;103062.50;5114005;28;20390;-75
2023/01/24 07:26:48;;;;;;;8.15;4.55;;;;;;;3.22;64.04;103069.00;5114850;28;20421;-74
2023/01/24 07:29:13;;;;;;;7.80;4.57;;;;;;;3.37;63.46;103085.03;5115076;28;20403;-76
2023/01/24 07:31:39;;;;;;;7.38;4.80;;;;;;;3.52;63.19;103083.50;5114524;28;20413;-75
2023/01/24 07:34:04;;;;;;;5.93;3.47;;;;;;;3.24;64.66;103072.41;5113740;28;20479;-76
2023/01/24 07:36:30;;;;;;;8.70;4.53;;;;;;;3.53;65.69;103074.69;5115049;28;20743;-75
2023/01/24 07:38:56;;;;;;;9.17;5.30;;;;;;;3.89;65.08;103082.75;5115141;28;20458;-76
2023/01/24 07:41:22;;;;;;;10.07;5.60;;;;;;;4.00;63.20;103087.53;5114636;27;20450;-76
2023/01/24 07:43:48;;;;;;;9.85;5.65;;;;;;;3.75;62.57;103085.16;5114690;28;20507;-78
2023/01/24 07:46:14;;;;;;;9.13;5.43;;;;;;;3.50;62.54;103082.72;5113127;28;20386;-77
2023/01/24 07:48:39;;;;;;;6.60;4.30;;;;;;;3.39;62.50;103096.28;5114575;28;20367;-74
2023/01/24 07:51:05;;;;;;;10.03;5.73;;;;;;;3.54;62.52;103097.41;5114349;28;20478;-74
2023/01/24 07:53:31;;;;;;;8.63;5.00;;;;;;;3.52;62.40;103086.13;5114464;28;20483;-75
2023/01/24 07:56:00;;;;;;;10.20;5.87;;;;;;;3.63;62.36;103097.84;5114704;28;20375;-75
2023/01/24 07:58:26;;;;;;;8.25;5.20;;;;;;;3.49;62.37;103099.38;5114785;28;20437;-74
2023/01/24 08:00:51;;;;;;;10.57;4.60;;;;;;;3.43;61.99;103101.31;5114430;28;20368;-76
2023/01/24 08:03:17;;;;;;;12.23;6.63;;;;;;;3.28;62.40;103099.34;5113176;28;20816;-77
2023/01/24 08:05:43;;;;;;;16.10;9.10;;;;;;;3.52;62.48;103102.72;5114943;28;20383;-75
2023/01/24 08:08:09;;;;;;;25.67;13.17;;;;;;;3.66;61.62;103090.78;5114385;28;20383;-76
2023/01/24 08:10:35;;;;;;;8.87;5.13;;;;;;;3.63;61.59;103099.63;5114769;28;20414;-76
2023/01/24 08:13:00;;;;;;;8.88;4.70;;;;;;;3.48;61.71;103103.75;5114059;28;20787;-74
2023/01/24 08:15:25;;;;;;;8.70;5.67;;;;;;;3.40;62.08;103098.84;5114322;28;20376;-76
2023/01/24 08:17:51;;;;;;;8.47;5.00;;;;;;;3.33;62.17;103104.38;5113851;28;20770;-76
2023/01/24 08:20:17;;;;;;;9.83;4.80;;;;;;;3.34;62.41;103108.72;5112808;28;20390;-75
2023/01/24 08:22:42;;;;;;;7.88;5.05;;;;;;;3.56;61.99;103103.44;5114194;28;20375;-75
2023/01/24 08:25:08;;;;;;;11.07;5.50;;;;;;;3.67;61.83;103110.84;5114159;28;20429;-75
2023/01/24 08:27:34;;;;;;;9.05;4.80;;;;;;;3.63;61.28;103103.09;5113956;28;20375;-76
2023/01/24 08:29:59;;;;;;;9.35;4.55;;;;;;;3.41;61.20;103107.56;5114520;27;20399;-77
2023/01/24 08:32:25;;;;;;;8.50;4.78;;;;;;;3.44;61.10;103118.78;5119714;28;20409;-75
2023/01/24 08:34:50;;;;;;;8.50;5.07;;;;;;;3.59;61.50;103116.41;5116529;28;20724;-74
2023/01/24 08:37:16;;;;;;;10.57;5.30;;;;;;;3.43;61.06;103114.44;5114249;28;20368;-74
2023/01/24 08:39:42;;;;;;;7.90;5.03;;;;;;;3.41;61.05;103121.50;5113703;28;20375;-77
2023/01/24 08:42:08;;;;;;;7.20;4.50;;;;;;;3.41;60.93;103108.41;5114187;28;20360;-75
2023/01/24 08:44:33;;;;;;;8.45;5.03;;;;;;;3.39;60.87;103118.09;5114432;28;20375;-76
2023/01/24 08:46:59;;;;;;;8.90;5.03;;;;;;;3.47;60.91;103114.31;5114203;28;20386;-76
2023/01/24 08:49:24;;;;;;;9.95;5.90;;;;;;;3.51;60.53;103126.38;5118671;28;20406;-76
2023/01/24 08:51:58;;;;;;;9.48;5.60;;;;;;;3.60;60.60;103121.59;5119161;28;20450;-75
2023/01/24 08:54:24;;;;;;;10.75;5.72;;;;;;;3.72;60.30;103130.72;5113489;28;20460;-74
2023/01/24 08:56:50;;;;;;;10.65;5.55;;;;;;;3.69;59.90;103129.97;5112996;28;20413;-75
2023/01/24 08:59:15;;;;;;;9.63;5.30;;;;;;;3.37;60.07;103112.06;5113431;28;20383;-76
2023/01/24 09:01:41;;;;;;;9.70;5.30;;;;;;;3.50;59.67;103115.03;5112206;28;20874;-76
2023/01/24 09:04:08;;;;;;;7.17;3.90;;;;;;;3.54;59.76;103124.47;5112622;28;20391;-75
2023/01/24 09:06:34;;;;;;;9.13;4.18;;;;;;;3.30;59.94;103115.03;5113158;28;20440;-76
2023/01/24 09:08:59;;;;;;;10.83;4.40;;;;;;;3.62;59.78;103119.75;5113241;28;20383;-76
2023/01/24 09:11:25;;;;;;;7.17;3.90;;;;;;;3.77;59.27;103126.13;5113123;28;20410;-76
2023/01/24 09:13:50;;;;;;;6.77;4.10;;;;;;;3.82;58.69;103108.41;5113308;28;21065;-75
2023/01/24 09:16:16;;;;;;;6.70;4.28;;;;;;;3.66;58.45;103098.66;5112685;28;20395;-77
2023/01/24 09:18:41;;;;;;;8.20;3.80;;;;;;;3.58;58.39;103109.47;5113053;28;20873;-75
2023/01/24 09:21:07;;;;;;;8.43;4.17;;;;;;;3.28;58.88;103115.09;5113482;28;20395;-75
2023/01/24 09:23:32;;;;;;;8.10;3.73;;;;;;;3.17;59.25;103112.03;5113002;28;20368;-75
2023/01/24 09:25:58;;;;;;;7.33;4.17;;;;;;;3.62;59.00;103108.44;5113268;28;20370;-77
2023/01/24 09:28:23;;;;;;;8.27;4.57;;;;;;;3.72;58.72;103101.84;5113588;28;20371;-76
2023/01/24 09:30:50;;;;;;;6.77;4.30;;;;;;;3.71;58.33;103094.91;5111624;28;20431;-74
2023/01/24 09:33:17;;;;;;;8.02;4.20;;;;;;;3.60;57.65;103094.50;5112266;28;20399;-77
2023/01/24 09:35:54;;;;;;;9.02;4.78;;;;;;;3.51;58.08;103098.41;5112742;28;20364;-75
2023/01/24 09:38:21;;;;;;;7.37;4.50;;;;;;;3.40;57.76;103105.84;5112016;28;20540;-75
2023/01/24 09:40:56;;;;;;;10.93;5.20;;;;;;;3.42;57.88;103090.91;5111596;28;20382;-75
2023/01/24 09:43:30;;;;;;;10.57;5.07;;;;;;;3.36;58.23;103099.88;5112983;28;20368;-75
2023/01/24 09:46:12;;;;;;;12.85;5.65;;;;;;;3.45;57.96;103088.16;5111970;28;20394;-76
2023/01/24 09:48:40;;;;;;;10.50;5.53;;;;;;;3.60;57.50;103078.75;5112854;28;20859;-77
2023/01/24 09:51:13;;;;;;;12.65;6.63;;;;;;;3.82;57.54;103078.72;5112314;28;20376;-77
2023/01/24 09:53:49;;;;;;;10.95;5.72;;;;;;;3.93;57.08;103086.09;5112300;28;20399;-75
2023/01/24 09:56:30;;;;;;;9.65;5.65;;;;;;;3.81;57.42;103085.69;5112239;28;20784;-74
2023/01/24 09:59:20;;;;;;;10.80;5.50;;;;;;;3.58;57.56;103088.47;5112194;28;20375;-76
2023/01/24 10:01:47;;;;;;;11.70;5.97;;;;;;;3.68;58.06;103066.19;5111110;28;20705;-76
2023/01/24 10:04:17;;;;;;;12.13;6.40;;;;;;;3.48;58.04;103072.28;5112009;28;20492;-76
2023/01/24 10:07:04;;;;;;;10.55;6.25;;;;;;;3.89;57.78;103076.66;5112446;28;20374;-77
2023/01/24 10:09:39;;;;;;;9.70;6.00;;;;;;;4.10;57.70;103074.84;5112245;28;20840;-76
2023/01/24 10:12:31;;;;;;;10.07;6.18;;;;;;;4.04;56.98;103075.13;5112266;28;20395;-75
2023/01/24 10:15:24;;;;;;;8.10;5.00;;;;;;;3.90;57.57;103065.25;5080435;28;20384;-75
2023/01/24 10:17:59;;;;;;;10.43;5.95;;;;;;;3.87;57.07;103066.25;5102104;28;20410;-75
2023/01/24 10:20:31;;;;;;;11.48;5.88;;;;;;;4.05;56.93;103063.69;5118156;28;20367;-76
2023/01/24 10:23:02;;;;;;;9.02;4.90;;;;;;;4.09;56.52;103063.50;5119152;28;20364;-76
2023/01/24 10:25:32;;;;;;;8.90;5.43;;;;;;;4.17;56.67;103061.34;5112502;28;20375;-75
2023/01/24 10:28:01;;;;;;;10.50;5.53;;;;;;;4.00;56.83;103056.03;5111095;28;20430;-75
2023/01/24 10:30:45;;;;;;;9.60;5.32;;;;;;;4.10;56.67;103044.19;5111463;28;20789;-75
2023/01/24 10:33:16;;;;;;;11.30;5.97;;;;;;;4.10;56.09;103053.84;5111834;28;20459;-75
2023/01/24 10:36:03;;;;;;;9.70;5.27;;;;;;;4.07;56.64;103038.22;5112764;28;20777;-76
2023/01/24 10:38:29;;;;;;;10.23;5.32;;;;;;;4.04;56.64;103046.25;5118328;28;20376;-75
2023/01/24 10:41:09;;;;;;;10.23;5.27;;;;;;;3.95;56.32;103039.66;5116106;28;20415;-76
2023/01/24 10:43:37;;;;;;;8.68;5.72;;;;;;;4.17;56.33;103034.25;5110642;28;20375;-76
2023/01/24 10:46:14;;;;;;;9.63;5.13;;;;;;;4.21;56.40;103036.69;5111475;28;20440;-76
2023/01/24 10:48:44;;;;;;;9.90;5.72;;;;;;;4.21;56.42;103023.56;5111659;28;20464;-75
2023/01/24 10:51:13;;;;;;;9.52;5.40;;;;;;;4.37;56.54;103025.44;5111661;28;20364;-77
2023/01/24 10:53:39;;;;;;;10.98;5.90;;;;;;;4.38;56.44;103022.75;5111850;28;20444;-77
2023/01/24 10:56:06;;;;;;;9.52;5.85;;;;;;;4.43;56.44;103024.31;5111907;28;20379;-75
2023/01/24 10:58:39;;;;;;;10.88;5.80;;;;;;;4.43;56.08;103022.56;5112137;28;20368;-78
2023/01/24 11:01:13;;;;;;;11.13;6.38;;;;;;;4.27;56.54;103011.91;5093884;28;20428;-75
2023/01/24 11:03:40;;;;;;;11.38;6.13;;;;;;;4.11;56.20;103022.28;5110304;28;20716;-74
2023/01/24 11:06:22;;;;;;;9.73;6.25;;;;;;;4.14;56.73;103003.78;5111909;28;20712;-76
2023/01/24 11:08:54;;;;;;;12.60;7.13;;;;;;;4.30;56.31;103008.28;5112017;28;20368;-77
2023/01/24 11:11:28;;;;;;;10.32;6.07;;;;;;;4.30;56.02;103001.25;5111104;28;20403;-77
2023/01/24 11:13:56;;;;;;;13.80;7.15;;;;;;;4.17;55.79;103003.59;5111500;28;20368;-76
2023/01/24 11:16:28;;;;;;;13.20;6.67;;;;;;;4.38;55.50;102987.78;5111761;28;20496;-77
2023/01/24 11:19:02;;;;;;;10.77;5.80;;;;;;;4.38;55.52;102993.88;5111779;28;20926;-75
2023/01/24 11:21:29;;;;;;;10.00;5.60;;;;;;;4.18;55.52;102988.72;5112034;28;20379;-75
2023/01/24 11:24:06;;;;;;;10.60;5.30;;;;;;;4.17;55.87;102990.47;5110844;28;20368;-76
2023/01/24 11:26:36;;;;;;;8.90;4.57;;;;;;;4.32;55.18;102988.06;5111394;28;20415;-76
2023/01/24 11:29:05;;;;;;;13.52;5.13;;;;;;;4.17;54.98;102987.84;5111516;28;20411;-76
2023/01/24 11:31:48;;;;;;;9.88;4.40;;;;;;;4.11;54.69;102979.44;5111397;28;20402;-75
2023/01/24 11:34:38;;;;;;;6.10;3.70;;;;;;;3.85;53.92;102975.38;5111421;28;20770;-76
2023/01/24 11:37:23;;;;;;;8.35;4.18;;;;;;;3.98;54.36;102969.50;5111318;28;20702;-75
2023/01/24 11:40:04;;;;;;;12.38;4.70;;;;;;;4.04;54.30;102967.53;5114866;28;20458;-76
2023/01/24 11:42:54;;;;;;;6.63;4.20;;;;;;;4.10;53.73;102961.97;5114010;28;20364;-76
2023/01/24 11:45:28;;;;;;;9.50;5.00;;;;;;;3.96;54.55;102958.25;5115424;28;20808;-76
2023/01/24 11:48:20;;;;;;;6.40;3.67;;;;;;;3.88;54.05;102968.22;5114838;28;20376;-75
2023/01/24 11:50:48;;;;;;;7.93;4.68;;;;;;;4.33;54.32;102963.50;5114294;28;20387;-77
2023/01/24 11:53:43;;;;;;;7.38;3.70;;;;;;;4.37;53.60;102951.94;5114971;28;20401;-77
2023/01/24 11:56:28;;;;;;;9.07;4.07;;;;;;;3.94;53.47;102964.47;5114571;28;20397;-76
2023/01/24 11:58:56;;;;;;;6.45;3.85;;;;;;;3.89;53.74;102956.81;5114870;28;20852;-77
2023/01/24 12:01:56;;;;;;;6.75;4.20;;;;;;;3.94;54.39;102959.22;5116262;28;20848;-76
2023/01/24 12:04:43;;;;;;;6.15;3.38;;;;;;;3.96;53.43;102960.88;5110788;28;20889;-75
2023/01/24 12:07:46;;;;;;;8.48;4.00;;;;;;;3.77;54.52;102954.75;5116862;28;20446;-75
2023/01/24 12:10:45;;;;;;;6.95;3.80;;;;;;;3.85;54.04;102963.09;5117069;27;20368;-76
2023/01/24 12:13:28;;;;;;;8.13;4.50;;;;;;;3.96;54.42;102958.25;5114915;27;20463;-76
2023/01/24 12:16:20;;;;;;;6.72;4.22;;;;;;;3.79;54.32;102947.66;5115189;28;20387;-76